Los Cabos International Airport
MMSD : now visible

Airfield :











YOU CAN JOIN US ON...

 
LOGIN :

Register | Disclaimer

   EN    FR    IT 

 









Legend :    VFR   Marginal VFR   IFR   Intensive IFR   Very Intensive IFR
Visi :
Ceiling :
>= 8 km
>= 3000ft
5 to 8 km
1000 to 3000 ft
1500m to 5 km
500 to 1000 ft
800 to 1500m
200 to 500 ft
< 800m
< 200 ft
Symbols :   Thunderstorms  Fog  Heavy snow  Heavy precipitations  Wind > 20 kt






- Airport Elevation : 374 ft
- IATA code : SJD


MMSD - Los Cabos International

CURRENT METAR :
  • 061945Z 32012KT 12SM SKC 29/13 A3001 RMK CI

EXPIRED METARs :
  • 061847Z 31012KT 12SM SKC 28/13 A3004 RMK CI
  • 061747Z 30012KT 12SM SKC 28/11 A3005 RMK SLP162 51005 900 CI

TAF COR TAF MMSD
Valid from the 06 at 18:00 until the 07 at 18:00 UTC


061915Z 0618/0718 31012KT P6SM SKC
BECMG 0623/0624 32008KT
FM070400 34006KT P6SM SKC
FM071700 08008KT P6SM SKC



MET'MAP, your aeronautical weather chart ! - Copyright ORBIFLY December 2007 - Disclaimer

ORBIFLY MET'MAP TEAM :

Programming & Development : Alexandra Zaïnal
Concept & original design : Baudouin d'Aumeries
Assistance for programming : Marc-Olivier Méhu
Technical & hardware support : Manuel Goepfert

Contact : metmap@orbifly.com




SOURCES & CREDITS :

   NOAA       Earth
Advisory